Time;durP1;ratioP1;P1;durP2;ratioP2;P2;SDS_P1;SDS_P2;PMS_P1;PMS_P2;Temp;Humidity;BMP_temperature;BMP_pressure;BME280_temperature;BME280_humidity;BME280_pressure;Samples;Min_cycle;Max_cycle;Signal;HPM_P1;HPM_P2
2022/11/14 00:01:12;;;;;;;25.37;20.67;;;11.10;78.60;;;13.91;57.62;101929.13;5099398;28;20708;-58
2022/11/14 00:03:40;;;;;;;23.03;19.40;;;11.10;78.60;;;13.88;57.39;101927.63;5099610;28;20184;-60
2022/11/14 00:06:08;;;;;;;32.13;22.07;;;11.10;78.40;;;13.85;57.65;101924.50;5099364;28;20208;-61
2022/11/14 00:08:35;;;;;;;25.90;22.10;;;11.10;78.50;;;13.81;57.90;101929.28;5100223;28;20218;-60
2022/11/14 00:11:02;;;;;;;27.00;21.27;;;11.10;78.60;;;13.80;57.95;101921.53;5090180;28;20216;-60
2022/11/14 00:13:29;;;;;;;26.13;21.87;;;11.10;78.80;;;13.79;57.75;101926.00;5090100;28;20245;-60
2022/11/14 00:15:56;;;;;;;25.30;21.60;;;11.10;78.80;;;13.78;57.93;101928.81;5117328;28;20605;-62
2022/11/14 00:18:23;;;;;;;27.57;21.70;;;11.10;78.80;;;13.74;58.11;101919.56;5106090;27;20250;-58
2022/11/14 00:20:52;;;;;;;27.10;21.73;;;11.10;78.80;;;13.75;57.86;101923.84;5095579;28;20197;-59
2022/11/14 00:23:21;;;;;;;28.33;21.40;;;11.10;78.80;;;13.79;57.98;101926.00;5096443;28;20200;-60
2022/11/14 00:25:48;;;;;;;27.50;21.97;;;11.10;79.20;;;13.84;57.92;101922.84;5095999;28;20293;-59
2022/11/14 00:28:15;;;;;;;27.87;22.07;;;11.10;79.10;;;13.81;57.95;101920.53;5081762;28;20201;-60
2022/11/14 00:30:46;;;;;;;28.43;22.30;;;11.10;78.90;;;13.80;57.91;101918.88;5077334;28;20194;-61
2022/11/14 00:33:14;;;;;;;32.23;22.67;;;11.10;78.90;;;13.83;57.98;101918.56;5076978;28;20231;-60
2022/11/14 00:35:53;;;;;;;30.30;24.23;;;11.10;79.10;;;13.82;57.89;101909.78;5076253;28;20193;-59
2022/11/14 00:38:21;;;;;;;27.27;21.73;;;11.10;79.00;;;13.86;57.90;101910.28;5075917;28;20665;-60
2022/11/14 00:40:48;;;;;;;26.27;21.67;;;11.10;78.80;;;13.89;57.82;101909.94;5076236;28;20677;-60
2022/11/14 00:43:15;;;;;;;24.87;21.13;;;11.20;78.90;;;13.90;57.57;101895.72;5080238;28;20611;-60
2022/11/14 00:45:43;;;;;;;28.33;22.47;;;11.10;78.60;;;13.88;57.22;101901.16;5094801;28;20631;-60
2022/11/14 00:48:10;;;;;;;28.77;22.30;;;11.20;78.60;;;13.84;57.79;101896.38;5096177;28;20227;-61
2022/11/14 00:50:37;;;;;;;27.30;22.80;;;11.20;78.50;;;13.81;57.66;101899.38;5095599;28;20242;-60
2022/11/14 00:53:06;;;;;;;31.70;23.13;;;11.20;78.40;;;13.78;57.73;101891.75;5095605;28;20196;-60
2022/11/14 00:55:33;;;;;;;28.17;22.33;;;11.10;78.40;;;13.77;57.75;101895.38;5094543;28;20737;-58
2022/11/14 00:58:00;;;;;;;27.37;22.13;;;11.10;78.30;;;13.77;57.97;101895.38;5095766;28;20641;-58
2022/11/14 01:00:27;;;;;;;27.83;21.90;;;11.10;78.40;;;13.80;57.78;101895.06;5087239;28;20255;-60
2022/11/14 01:02:55;;;;;;;30.13;23.00;;;11.10;78.50;;;13.82;57.75;101895.72;5093572;28;20277;-59
2022/11/14 01:05:23;;;;;;;27.37;22.47;;;11.10;78.60;;;13.84;57.71;101896.38;5095623;28;20660;-61
2022/11/14 01:07:50;;;;;;;26.83;21.83;;;11.10;78.60;;;13.85;57.75;101895.41;5095612;28;20630;-60
2022/11/14 01:10:19;;;;;;;25.83;21.90;;;11.10;78.60;;;13.89;57.81;101888.75;5095344;28;20189;-59
2022/11/14 01:12:47;;;;;;;26.30;21.93;;;11.10;78.60;;;13.90;57.50;101880.69;5094440;28;20208;-58
2022/11/14 01:15:14;;;;;;;26.77;21.67;;;11.20;78.50;;;13.86;57.52;101878.53;5106911;28;20268;-60
2022/11/14 01:17:41;;;;;;;28.40;21.87;;;11.20;78.30;;;13.87;57.28;101880.16;5087090;28;20699;-59
2022/11/14 01:20:08;;;;;;;25.20;21.03;;;11.20;78.30;;;13.92;57.24;101872.56;5095017;28;20575;-59
2022/11/14 01:22:35;;;;;;;23.83;20.37;;;11.20;78.30;;;13.96;57.19;101871.22;5094870;28;20609;-59
2022/11/14 01:25:03;;;;;;;26.83;20.80;;;11.20;78.20;;;13.99;57.10;101870.88;5095455;28;20214;-61
2022/11/14 01:27:31;;;;;;;24.13;20.73;;;11.20;78.30;;;14.03;57.02;101869.53;5094721;28;20693;-60
2022/11/14 01:29:58;;;;;;;26.80;21.57;;;11.20;78.10;;;14.05;56.91;101878.13;5094822;28;20189;-59
2022/11/14 01:32:26;;;;;;;26.63;21.47;;;11.20;77.80;;;14.05;56.80;101875.50;5090742;28;20208;-60
2022/11/14 01:34:53;;;;;;;28.13;21.93;;;11.30;77.80;;;14.02;56.63;101865.25;5075739;28;20197;-59
2022/11/14 01:37:20;;;;;;;29.03;22.27;;;11.30;77.60;;;14.00;56.51;101864.59;5074586;28;20185;-60
2022/11/14 01:39:47;;;;;;;27.53;20.60;;;11.20;77.20;;;13.96;56.68;101863.28;5074334;28;20193;-59
2022/11/14 01:42:14;;;;;;;29.23;21.77;;;11.20;77.20;;;13.96;56.68;101858.81;5074193;28;20262;-60
2022/11/14 01:44:48;;;;;;;28.40;21.60;;;11.20;77.20;;;13.95;56.76;101862.44;5080570;28;20188;-61
2022/11/14 01:47:21;;;;;;;26.27;21.43;;;11.20;77.10;;;13.93;56.83;101855.69;5094426;28;20212;-61
2022/11/14 01:49:53;;;;;;;25.37;20.60;;;11.20;76.90;;;13.93;56.39;101853.06;5089996;28;20195;-61
2022/11/14 01:52:25;;;;;;;28.77;23.30;;;11.20;76.90;;;13.83;56.33;101850.59;5073990;28;20217;-59
2022/11/14 01:54:57;;;;;;;27.57;21.37;;;11.20;76.60;;;13.75;56.45;101839.16;5074090;28;20235;-60
2022/11/14 01:57:30;;;;;;;28.33;21.93;;;11.20;76.50;;;13.75;56.50;101840.00;5074377;28;20185;-59
2022/11/14 02:00:05;;;;;;;26.43;20.93;;;11.10;76.40;;;13.73;56.34;101835.88;5089656;28;20189;-60
2022/11/14 02:02:32;;;;;;;26.10;21.20;;;11.10;76.30;;;13.69;56.31;101821.34;5094449;28;20212;-58
2022/11/14 02:05:05;;;;;;;25.13;19.97;;;11.10;76.20;;;13.67;56.21;101828.63;5094397;28;20189;-59
2022/11/14 02:07:38;;;;;;;24.90;20.37;;;11.10;76.20;;;13.65;56.36;101825.28;5092731;28;20219;-60
2022/11/14 02:10:10;;;;;;;28.00;21.63;;;11.10;76.10;;;13.66;56.17;101816.38;5094144;28;20250;-61
2022/11/14 02:12:37;;;;;;;25.87;19.97;;;11.00;76.20;;;13.68;56.12;101817.03;5093395;28;20212;-60
2022/11/14 02:15:08;;;;;;;25.23;20.50;;;11.00;76.20;;;13.71;55.98;101817.53;5089710;28;20189;-59
2022/11/14 02:17:36;;;;;;;28.10;21.07;;;11.00;76.20;;;13.67;55.98;101815.38;5080260;28;20263;-60
2022/11/14 02:20:17;;;;;;;27.27;19.90;;;11.00;75.90;;;13.66;56.18;101808.44;5093086;28;20196;-61
2022/11/14 02:22:44;;;;;;;25.57;21.03;;;11.00;76.10;;;13.65;55.98;101794.38;5073999;28;20212;-60
2022/11/14 02:25:17;;;;;;;25.97;20.77;;;11.00;76.00;;;13.60;56.03;101794.03;5073578;28;20654;-60
2022/11/14 02:27:44;;;;;;;25.30;20.70;;;11.00;75.90;;;13.58;56.21;101791.59;5073936;28;20216;-61
2022/11/14 02:30:17;;;;;;;27.63;21.13;;;11.00;76.00;;;13.62;56.14;101788.59;5073769;28;20219;-60
2022/11/14 02:32:44;;;;;;;25.70;20.37;;;11.00;76.20;;;13.63;56.24;101785.78;5085783;28;20209;-59
2022/11/14 02:35:32;;;;;;;27.40;20.77;;;11.00;76.20;;;13.63;56.08;101782.31;5093995;28;20212;-60
2022/11/14 02:37:59;;;;;;;25.40;20.70;;;11.00;76.00;;;13.57;56.03;101768.75;5093918;28;20652;-59
2022/11/14 02:40:26;;;;;;;28.90;21.87;;;10.90;75.60;;;13.49;55.80;101773.25;5093500;28;20241;-60
2022/11/14 02:42:53;;;;;;;26.13;20.47;;;10.90;75.30;;;13.44;55.74;101768.47;5092967;28;20224;-59
2022/11/14 02:45:20;;;;;;;26.07;20.77;;;10.80;75.30;;;13.32;55.90;101767.16;5093660;28;20200;-60
2022/11/14 02:47:47;;;;;;;30.07;23.20;;;10.80;75.30;;;13.21;56.35;101770.16;5090000;28;20217;-61
2022/11/14 02:50:15;;;;;;;27.27;21.30;;;10.70;75.30;;;13.08;56.81;101767.16;5074301;28;20193;-60
2022/11/14 02:52:43;;;;;;;27.10;19.77;;;10.70;75.60;;;13.05;56.75;101772.72;5072856;28;20278;-57
2022/11/14 02:55:11;;;;;;;28.57;21.53;;;10.70;75.70;;;13.02;56.91;101757.22;5073659;28;20273;-59
2022/11/14 02:57:38;;;;;;;28.07;22.20;;;10.60;75.90;;;12.99;56.82;101752.25;5073166;28;20239;-58
2022/11/14 03:00:07;;;;;;;27.97;22.93;;;10.60;75.90;;;12.75;57.47;101749.59;5073401;28;20189;-60
2022/11/14 03:02:41;;;;;;;28.00;22.67;;;10.50;75.90;;;12.53;58.16;101740.50;5072995;28;20684;-60
2022/11/14 03:05:08;;;;;;;24.83;20.03;;;10.40;76.10;;;12.51;58.38;101731.06;5073878;28;20193;-61
2022/11/14 03:07:35;;;;;;;26.13;21.20;;;10.40;76.40;;;12.60;57.88;101730.94;5072929;28;20289;-59
2022/11/14 03:10:05;;;;;;;26.10;20.60;;;10.30;76.50;;;12.69;57.82;101729.13;5073051;28;20267;-60
2022/11/14 03:12:32;;;;;;;33.20;22.77;;;10.40;76.70;;;12.78;57.51;101733.44;5072306;28;20670;-59
2022/11/14 03:14:59;;;;;;;26.93;21.60;;;10.40;76.60;;;12.82;57.54;101730.28;5092092;28;20244;-59
2022/11/14 03:17:31;;;;;;;28.40;21.03;;;10.40;76.60;;;12.85;57.34;101729.13;5109353;28;20196;-60
2022/11/14 03:19:58;;;;;;;30.20;21.77;;;10.40;76.30;;;12.85;57.07;101723.84;5086109;28;20189;-60
2022/11/14 03:22:25;;;;;;;31.80;22.20;;;10.40;76.20;;;12.76;57.48;101730.97;5074176;28;20612;-59
2022/11/14 03:24:52;;;;;;;30.50;22.77;;;10.30;76.20;;;12.60;57.80;101715.06;5072875;28;20193;-60
2022/11/14 03:27:21;;;;;;;26.80;21.17;;;10.30;76.50;;;12.67;57.81;101720.56;5072676;28;20213;-60
2022/11/14 03:29:48;;;;;;;30.00;22.07;;;10.30;76.60;;;12.72;57.60;101719.06;5072669;28;20305;-59
2022/11/14 03:32:15;;;;;;;27.43;21.97;;;10.30;76.70;;;12.80;57.23;101715.59;5072711;28;20216;-60
2022/11/14 03:34:42;;;;;;;28.77;21.97;;;10.30;76.60;;;12.83;57.37;101712.63;5073631;28;20242;-62
2022/11/14 03:37:09;;;;;;;26.90;22.37;;;10.30;76.70;;;12.87;57.33;101720.06;5075993;28;20185;-59
2022/11/14 03:39:36;;;;;;;26.80;21.07;;;10.30;76.60;;;12.91;56.96;101718.72;5094180;28;20218;-60
2022/11/14 03:42:04;;;;;;;26.87;20.47;;;10.30;76.50;;;12.89;57.02;101722.53;5084570;28;20242;-59
2022/11/14 03:44:32;;;;;;;29.60;21.27;;;10.40;76.30;;;12.75;57.26;101720.53;5072859;28;20247;-59
2022/11/14 03:46:59;;;;;;;29.50;21.93;;;10.30;76.20;;;12.64;57.55;101716.44;5083917;28;20213;-60
2022/11/14 03:49:26;;;;;;;28.10;21.93;;;10.30;76.30;;;12.62;57.75;101712.28;5092898;28;20242;-60
2022/11/14 03:51:53;;;;;;;29.30;21.83;;;10.30;76.40;;;12.68;57.36;101711.63;5092923;28;20262;-59
2022/11/14 03:54:20;;;;;;;30.00;22.97;;;10.30;76.40;;;12.68;57.73;101711.63;5087130;28;20587;-59
2022/11/14 03:56:47;;;;;;;28.93;22.93;;;10.30;76.60;;;12.69;57.64;101718.56;5086144;28;20200;-61
2022/11/14 03:59:14;;;;;;;26.47;20.73;;;10.30;76.60;;;12.60;57.79;101709.00;5095610;28;20200;-59
2022/11/14 04:01:42;;;;;;;30.87;22.03;;;10.20;76.60;;;12.59;58.23;101697.59;5095753;28;20224;-59
2022/11/14 04:04:11;;;;;;;28.87;22.23;;;10.20;76.70;;;12.67;57.73;101699.44;5096451;28;20185;-59
2022/11/14 04:06:38;;;;;;;29.67;21.17;;;10.20;77.00;;;12.79;57.65;101693.63;5087947;28;20185;-59
2022/11/14 04:09:05;;;;;;;29.37;21.90;;;10.20;77.00;;;12.90;57.28;101695.13;5088785;28;20192;-58
2022/11/14 04:11:32;;;;;;;30.03;22.60;;;10.30;77.10;;;12.84;56.90;101691.31;5095853;28;20216;-61
2022/11/14 04:13:59;;;;;;;28.07;21.47;;;10.30;76.60;;;12.88;57.06;101692.63;5099369;28;20192;-61
2022/11/14 04:16:26;;;;;;;30.50;24.03;;;10.30;76.60;;;12.88;56.96;101683.91;5110268;28;20687;-59
2022/11/14 04:18:54;;;;;;;30.17;22.93;;;10.30;76.60;;;12.84;57.29;101679.91;5096389;28;20706;-60
2022/11/14 04:21:21;;;;;;;32.83;23.87;;;10.30;76.60;;;12.77;57.42;101678.94;5095514;28;20700;-60
2022/11/14 04:23:48;;;;;;;28.53;21.93;;;10.30;76.90;;;12.74;57.49;101680.09;5095397;28;20196;-60
2022/11/14 04:26:15;;;;;;;30.37;22.00;;;10.30;76.60;;;12.70;57.64;101688.50;5091219;28;20193;-61
2022/11/14 04:28:42;;;;;;;31.70;22.80;;;10.30;76.80;;;12.61;58.03;101684.22;5076028;28;20225;-60
2022/11/14 04:31:09;;;;;;;29.97;23.23;;;10.20;76.80;;;12.47;57.78;101692.78;5075318;28;20217;-60
2022/11/14 04:33:36;;;;;;;30.50;23.07;;;10.10;76.50;;;12.27;58.26;101680.88;5076089;28;20658;-59
2022/11/14 04:36:06;;;;;;;31.93;22.67;;;10.10;76.80;;;12.28;58.83;101671.97;5077828;28;20193;-60
2022/11/14 04:38:33;;;;;;;31.27;23.23;;;10.10;77.00;;;12.27;58.49;101673.78;5087048;28;20193;-61
2022/11/14 04:41:00;;;;;;;31.93;23.37;;;10.10;77.20;;;12.26;58.56;101668.66;5096060;28;20622;-58
2022/11/14 04:43:27;;;;;;;32.00;23.50;;;10.00;77.30;;;12.33;58.44;101674.94;5095718;28;20212;-60
2022/11/14 04:45:53;;;;;;;31.70;22.47;;;10.00;77.40;;;12.32;58.71;101668.84;5094930;28;20200;-60
2022/11/14 04:48:20;;;;;;;33.47;23.70;;;10.00;77.50;;;12.43;58.54;101665.06;5095789;28;20534;-59
2022/11/14 04:50:47;;;;;;;34.47;24.80;;;10.00;77.60;;;12.29;58.57;101668.34;5084763;28;20239;-60
2022/11/14 04:53:16;;;;;;;29.23;22.13;;;9.90;78.40;;;12.20;58.67;101655.13;5075409;28;20223;-58
2022/11/14 04:55:44;;;;;;;31.60;22.87;;;9.90;78.20;;;12.21;58.69;101661.25;5075262;28;20250;-59
2022/11/14 04:58:11;;;;;;;33.27;24.10;;;9.90;78.40;;;12.23;58.73;101659.25;5094958;28;20192;-60
2022/11/14 05:00:38;;;;;;;35.03;24.67;;;9.90;78.50;;;12.20;58.85;101656.94;5094765;28;20226;-60
2022/11/14 05:03:05;;;;;;;32.37;24.53;;;9.90;78.70;;;12.08;59.04;101648.50;5095284;28;20660;-58
2022/11/14 05:05:32;;;;;;;31.90;22.93;;;9.90;79.10;;;12.03;59.23;101650.81;5076664;28;20250;-58
2022/11/14 05:08:05;;;;;;;34.93;24.03;;;9.80;78.90;;;12.22;59.25;101641.75;5093529;28;20282;-59
2022/11/14 05:10:33;;;;;;;27.13;21.87;;;9.90;79.80;;;12.39;58.75;101643.44;5095799;28;20203;-60
2022/11/14 05:13:01;;;;;;;33.47;22.13;;;9.90;79.10;;;12.53;58.56;101641.94;5095089;28;20617;-60
2022/11/14 05:15:28;;;;;;;29.93;22.17;;;10.00;78.00;;;12.59;57.91;101643.94;5108936;28;20192;-61
2022/11/14 05:17:56;;;;;;;31.67;23.67;;;10.00;77.60;;;12.60;57.92;101629.78;5093773;28;20625;-58
2022/11/14 05:20:23;;;;;;;31.97;24.23;;;10.00;77.30;;;12.51;57.71;101631.56;5090265;28;20193;-58
2022/11/14 05:22:53;;;;;;;30.83;23.17;;;10.10;77.30;;;12.57;57.67;101640.66;5094776;28;20281;-61
2022/11/14 05:25:20;;;;;;;33.33;22.60;;;10.10;77.20;;;12.57;57.61;101638.84;5095089;28;20200;-60
2022/11/14 05:27:49;;;;;;;31.90;24.30;;;10.10;77.10;;;12.56;57.49;101637.19;5094248;28;20214;-60
2022/11/14 05:30:16;;;;;;;30.73;23.10;;;10.00;76.80;;;12.55;57.93;101637.34;5094741;28;20283;-60
2022/11/14 05:32:43;;;;;;;32.43;24.33;;;10.10;76.90;;;12.50;57.64;101642.31;5084783;28;20216;-60
2022/11/14 05:35:11;;;;;;;33.23;24.27;;;10.00;76.90;;;12.50;57.78;101635.22;5087764;28;20196;-59
2022/11/14 05:37:38;;;;;;;36.43;25.43;;;10.00;77.00;;;12.44;57.96;101633.22;5093964;28;20211;-60
2022/11/14 05:40:06;;;;;;;32.53;22.80;;;10.00;77.10;;;12.45;58.21;101626.13;5094832;28;20242;-60
2022/11/14 05:42:33;;;;;;;31.03;23.20;;;10.00;77.10;;;12.53;57.90;101628.75;5094380;28;20212;-62
2022/11/14 05:45:01;;;;;;;33.80;23.03;;;10.00;77.20;;;12.62;57.75;101623.28;5094121;28;20249;-59
2022/11/14 05:47:28;;;;;;;32.83;24.30;;;10.10;77.50;;;12.66;57.33;101619.34;5090664;28;20220;-59
2022/11/14 05:49:55;;;;;;;34.00;22.93;;;10.10;77.20;;;12.71;57.54;101616.22;5094024;28;20257;-60
2022/11/14 05:52:22;;;;;;;32.47;24.37;;;10.10;77.10;;;12.78;57.23;101617.19;5093791;28;20220;-60
2022/11/14 05:54:49;;;;;;;32.83;24.93;;;10.10;76.80;;;12.72;57.02;101609.91;5094101;28;20200;-61
2022/11/14 05:57:16;;;;;;;34.97;24.97;;;10.10;77.40;;;12.69;57.54;101613.72;5084086;28;20201;-60
2022/11/14 05:59:43;;;;;;;34.93;25.67;;;10.10;76.70;;;12.75;57.44;101609.59;5075073;28;20560;-60
2022/11/14 06:02:11;;;;;;;32.73;23.90;;;10.20;76.90;;;12.81;57.21;101611.59;5093459;28;20278;-60
2022/11/14 06:04:38;;;;;;;31.40;23.70;;;10.20;76.90;;;12.86;56.96;101609.25;5094286;28;20291;-61
2022/11/14 06:07:05;;;;;;;27.83;20.93;;;10.20;76.80;;;12.89;56.94;101607.09;5084251;28;20658;-61
2022/11/14 06:09:32;;;;;;;35.87;24.90;;;10.20;76.80;;;12.79;56.78;101598.53;5073761;28;20299;-61
2022/11/14 06:11:59;;;;;;;32.67;24.47;;;10.20;76.40;;;12.60;57.15;101598.06;5072785;28;20213;-59
2022/11/14 06:14:26;;;;;;;36.80;25.00;;;10.10;76.30;;;12.47;58.05;101608.28;5084888;28;20253;-60
2022/11/14 06:16:53;;;;;;;37.23;25.30;;;10.10;76.60;;;12.43;58.20;101601.72;5097476;28;20193;-61
2022/11/14 06:19:21;;;;;;;35.17;25.47;;;10.10;76.80;;;12.39;58.33;101609.13;5083196;28;20188;-62
2022/11/14 06:21:48;;;;;;;34.93;24.97;;;10.00;76.90;;;12.43;58.13;101596.44;5097107;28;20669;-60
2022/11/14 06:24:15;;;;;;;34.00;25.77;;;10.00;76.90;;;12.43;57.98;101612.28;5097654;28;20198;-62
2022/11/14 06:26:42;;;;;;;33.73;25.33;;;10.00;76.90;;;12.39;58.02;101611.75;5096376;28;20337;-61
2022/11/14 06:29:10;;;;;;;36.23;24.90;;;10.00;76.90;;;12.39;58.01;101610.94;5097475;28;20220;-60
2022/11/14 06:31:37;;;;;;;33.67;23.60;;;10.00;76.90;;;12.41;58.16;101604.50;5111756;28;20297;-60
2022/11/14 06:34:05;;;;;;;35.10;23.67;;;10.00;77.00;;;12.49;57.89;101599.22;5116809;28;20237;-62
2022/11/14 06:36:33;;;;;;;35.20;25.20;;;10.00;77.10;;;12.50;57.80;101608.81;5113307;28;20193;-61
2022/11/14 06:39:00;;;;;;;35.27;25.07;;;10.00;77.20;;;12.29;58.26;101615.56;5098022;28;20196;-60
2022/11/14 06:41:27;;;;;;;36.07;25.07;;;9.90;78.30;;;12.15;58.67;101599.38;5095616;28;20269;-61
2022/11/14 06:43:54;;;;;;;36.93;25.23;;;9.90;78.50;;;12.13;58.95;101596.06;5077210;28;20661;-62
2022/11/14 06:46:22;;;;;;;36.83;25.57;;;9.80;78.70;;;12.15;58.87;101609.94;5078850;28;20204;-60
2022/11/14 06:48:51;;;;;;;36.70;26.47;;;9.80;78.90;;;12.09;59.27;101604.47;5098847;28;20683;-60
2022/11/14 06:51:18;;;;;;;35.70;26.93;;;9.80;79.20;;;11.98;59.91;101608.25;5096836;28;20220;-62
2022/11/14 06:53:47;;;;;;;35.87;26.47;;;9.70;79.40;;;11.85;59.78;101617.63;5078605;28;20251;-61
2022/11/14 06:56:16;;;;;;;36.87;24.90;;;9.70;79.60;;;11.71;60.12;101607.69;5080671;28;20196;-64
2022/11/14 06:58:46;;;;;;;40.40;26.03;;;9.60;79.70;;;11.76;60.39;101619.41;5096694;28;20184;-60
2022/11/14 07:01:16;;;;;;;37.83;25.30;;;9.60;79.90;;;11.86;60.27;101628.00;5095487;28;20220;-61
2022/11/14 07:03:44;;;;;;;38.80;26.00;;;9.60;80.10;;;11.84;60.40;101622.06;5079319;28;20189;-61
2022/11/14 07:06:14;;;;;;;34.57;24.67;;;9.60;80.10;;;11.93;60.32;101613.19;5073642;28;20346;-60
2022/11/14 07:08:41;;;;;;;40.27;25.83;;;9.60;80.20;;;11.99;59.94;101617.81;5087456;28;20491;-62
2022/11/14 07:11:21;;;;;;;35.10;24.20;;;9.60;80.00;;;12.10;59.26;101620.13;5081701;28;20226;-61
2022/11/14 07:13:48;;;;;;;36.13;27.43;;;9.70;79.80;;;11.86;59.84;101624.56;5080581;28;20193;-61
2022/11/14 07:16:16;;;;;;;35.57;25.67;;;9.60;79.60;;;11.86;59.64;101624.56;5089961;28;20735;-61
2022/11/14 07:18:43;;;;;;;36.87;24.97;;;9.60;79.60;;;11.73;60.57;101625.00;5093316;28;20202;-61
2022/11/14 07:21:12;;;;;;;38.73;26.60;;;9.60;79.80;;;11.60;60.37;101621.94;5092729;28;20217;-59
2022/11/14 07:23:46;;;;;;;36.80;24.47;;;9.50;80.00;;;11.73;60.08;101622.38;5095175;28;20192;-61
2022/11/14 07:26:18;;;;;;;38.27;26.00;;;9.60;80.10;;;11.82;60.48;101623.22;5086871;28;20219;-61
2022/11/14 07:28:49;;;;;;;40.87;27.00;;;9.60;80.30;;;11.81;60.21;101637.41;5081769;28;20212;-64
2022/11/14 07:31:24;;;;;;;38.60;27.10;;;9.60;80.30;;;11.84;60.44;101621.25;5066841;28;20285;-66
2022/11/14 07:33:51;;;;;;;39.97;28.10;;;9.60;80.40;;;11.71;60.67;101624.34;5068540;28;20245;-61
2022/11/14 07:36:18;;;;;;;42.93;27.67;;;9.50;80.40;;;11.75;60.57;101624.84;5089818;28;20960;-63
2022/11/14 07:38:46;;;;;;;39.70;27.23;;;9.50;80.50;;;11.84;60.31;101616.78;5096157;28;20173;-60
2022/11/14 07:41:16;;;;;;;40.77;27.07;;;9.60;80.50;;;11.85;59.92;101618.44;5091820;28;20217;-61
2022/11/14 07:43:44;;;;;;;39.83;28.23;;;9.60;80.30;;;11.91;59.96;101617.00;5097573;28;20185;-62
2022/11/14 07:46:14;;;;;;;36.73;25.13;;;9.60;80.30;;;12.01;59.70;101615.00;5092342;28;20572;-62
2022/11/14 07:48:42;;;;;;;40.27;25.70;;;9.60;80.20;;;12.12;59.69;101615.53;5063078;28;20201;-61
2022/11/14 07:51:17;;;;;;;40.83;28.40;;;9.70;80.20;;;12.18;59.31;101612.25;5086931;28;20794;-62
2022/11/14 07:53:45;;;;;;;39.20;27.00;;;9.70;80.10;;;12.27;59.17;101612.22;5088879;28;20215;-62
2022/11/14 07:56:12;;;;;;;41.43;27.87;;;9.70;80.00;;;12.34;58.98;101602.69;5076463;28;20181;-59
2022/11/14 07:58:41;;;;;;;41.90;27.80;;;9.80;80.00;;;12.41;58.52;101603.69;5076553;28;20262;-57
2022/11/14 08:01:11;;;;;;;39.07;27.00;;;9.80;79.80;;;12.48;58.53;101609.97;5077428;28;20229;-60
2022/11/14 08:03:40;;;;;;;36.83;25.17;;;9.90;80.00;;;12.57;58.33;101598.41;5089244;28;20184;-60
2022/11/14 08:06:14;;;;;;;40.53;26.70;;;9.90;79.80;;;12.65;57.88;101596.56;5083556;28;20287;-60
2022/11/14 08:08:41;;;;;;;42.63;27.57;;;9.90;79.50;;;12.63;57.81;101595.91;5096766;28;20210;-58
2022/11/14 08:11:09;;;;;;;37.33;25.50;;;10.00;78.00;;;12.66;57.75;101600.88;5114469;28;20214;-63
2022/11/14 08:13:36;;;;;;;42.30;28.63;;;10.00;77.80;;;12.59;57.72;101599.06;5091312;28;20205;-60
2022/11/14 08:16:09;;;;;;;39.80;26.13;;;10.00;77.60;;;12.44;58.31;101601.53;5115529;28;20282;-60
2022/11/14 08:18:40;;;;;;;39.13;27.73;;;10.00;77.70;;;12.43;58.46;101601.72;5101937;28;20188;-61
2022/11/14 08:21:07;;;;;;;43.23;27.40;;;10.00;77.80;;;12.39;58.24;101589.81;5093427;28;20567;-61
2022/11/14 08:23:34;;;;;;;36.97;25.93;;;9.90;79.00;;;12.35;58.62;101599.06;5090529;28;20200;-60
2022/11/14 08:26:02;;;;;;;43.50;28.63;;;9.90;79.10;;;12.39;58.48;101590.63;5096447;28;20191;-60
2022/11/14 08:28:29;;;;;;;38.23;27.37;;;9.90;79.10;;;12.47;58.17;101587.19;5095419;28;20214;-59
2022/11/14 08:30:59;;;;;;;42.13;29.57;;;10.00;78.50;;;12.54;58.16;101582.88;5094634;28;20235;-61
2022/11/14 08:33:28;;;;;;;44.23;29.23;;;10.00;78.00;;;12.44;58.23;101592.78;5087818;28;20193;-59
2022/11/14 08:35:55;;;;;;;44.10;27.67;;;9.90;78.70;;;12.31;58.86;101571.34;5087991;28;20766;-58
2022/11/14 08:38:22;;;;;;;39.20;27.13;;;10.00;77.70;;;12.37;58.46;101581.22;5086748;28;20196;-60
2022/11/14 08:40:49;;;;;;;39.87;27.10;;;10.00;77.80;;;12.43;58.32;101585.88;5089496;28;20302;-62
2022/11/14 08:43:15;;;;;;;38.43;27.17;;;10.00;77.70;;;12.47;58.21;101574.81;5084907;28;20188;-60
2022/11/14 08:45:43;;;;;;;40.27;27.53;;;10.00;77.40;;;12.50;57.74;101581.56;5089444;28;20302;-61
2022/11/14 08:48:13;;;;;;;42.87;28.17;;;10.00;77.40;;;12.51;58.07;101580.56;5090848;28;20197;-61
2022/11/14 08:50:44;;;;;;;39.37;26.83;;;10.00;77.40;;;12.55;58.06;101584.53;5075188;28;20208;-62
2022/11/14 08:53:11;;;;;;;37.90;27.20;;;10.00;77.30;;;12.53;57.81;101578.56;5083507;28;20669;-61
2022/11/14 08:55:43;;;;;;;37.23;26.70;;;10.00;77.20;;;12.56;58.07;101576.44;5074044;28;20197;-59
2022/11/14 08:58:10;;;;;;;43.10;28.80;;;10.10;77.50;;;12.64;57.63;101572.97;5075443;28;20198;-61
2022/11/14 09:00:37;;;;;;;38.90;26.30;;;10.10;77.40;;;12.49;57.92;101574.63;5075261;28;20259;-61
2022/11/14 09:03:07;;;;;;;39.20;27.07;;;10.10;77.30;;;12.63;57.48;101568.66;5078557;28;20287;-60
2022/11/14 09:05:37;;;;;;;40.00;28.00;;;10.10;77.40;;;12.73;57.54;101574.59;5075597;28;20189;-61
2022/11/14 09:08:06;;;;;;;43.67;29.30;;;10.10;77.20;;;12.66;57.48;101570.97;5076181;28;20185;-58
2022/11/14 09:10:34;;;;;;;40.13;28.73;;;10.10;77.00;;;12.53;57.80;101570.66;5075044;28;20243;-61
2022/11/14 09:13:01;;;;;;;36.37;25.50;;;10.10;77.00;;;12.51;58.28;101573.47;5074471;28;20221;-60
2022/11/14 09:15:29;;;;;;;41.40;27.10;;;10.10;77.10;;;12.48;57.95;101576.44;5101887;28;20625;-58
2022/11/14 09:17:57;;;;;;;36.33;26.70;;;10.10;76.90;;;12.37;58.43;101570.66;5086959;28;20204;-61
2022/11/14 09:20:25;;;;;;;42.07;27.70;;;10.00;76.80;;;12.34;57.86;101579.75;5090772;28;20665;-60
2022/11/14 09:23:00;;;;;;;35.67;25.20;;;10.00;76.80;;;12.21;58.45;101576.78;5095102;28;20215;-60
2022/11/14 09:25:29;;;;;;;32.50;24.33;;;9.90;77.80;;;12.22;58.30;101573.97;5095515;28;20201;-60
2022/11/14 09:27:57;;;;;;;36.17;25.27;;;10.00;76.70;;;12.12;58.25;101564.56;5091235;28;20200;-61
2022/11/14 09:30:24;;;;;;;36.73;24.90;;;9.90;77.70;;;12.18;58.54;101577.09;5079714;28;20220;-60
2022/11/14 09:32:51;;;;;;;37.67;26.30;;;9.90;77.90;;;12.22;58.24;101573.97;5089259;28;20224;-58
2022/11/14 09:35:18;;;;;;;36.17;24.67;;;9.90;77.90;;;12.33;58.16;101574.63;5076231;28;20231;-59
2022/11/14 09:37:45;;;;;;;38.40;27.17;;;9.90;77.90;;;12.09;58.72;101572.81;5091388;28;20242;-59
2022/11/14 09:40:13;;;;;;;37.07;25.30;;;9.80;78.00;;;12.15;58.77;101572.16;5083380;28;20918;-61
2022/11/14 09:43:16;;;;;;;39.53;28.10;;;9.90;78.30;;;12.15;58.36;101577.41;5075822;28;20209;-60
2022/11/14 09:45:51;;;;;;;41.03;25.87;;;9.90;78.40;;;12.18;58.64;101569.19;5075472;28;20185;-60
2022/11/14 09:48:24;;;;;;;35.63;24.60;;;9.90;78.50;;;12.35;58.36;101567.38;5088495;28;20567;-60
2022/11/14 09:51:05;;;;;;;37.07;24.80;;;10.00;77.40;;;12.48;57.90;101563.22;5087920;28;20561;-59
2022/11/14 09:53:39;;;;;;;38.17;25.40;;;10.00;77.40;;;12.61;57.29;101560.91;5082473;28;20215;-60
2022/11/14 09:56:11;;;;;;;39.33;27.53;;;10.10;77.20;;;12.65;57.32;101564.03;5077789;28;20181;-61
2022/11/14 09:58:41;;;;;;;38.47;26.23;;;10.10;77.00;;;12.56;57.56;101568.53;5087031;28;20192;-61
2022/11/14 10:01:16;;;;;;;34.60;25.17;;;10.10;76.60;;;12.63;57.36;101566.03;5095253;28;20212;-59
2022/11/14 10:03:57;;;;;;;40.03;28.07;;;10.20;76.60;;;12.58;57.39;101573.63;5078602;28;20263;-61
2022/11/14 10:06:32;;;;;;;37.37;27.27;;;10.10;76.50;;;12.59;57.40;101570.00;5091184;28;20192;-59